IRY weather

Iray Airstrip
Iray, West Papua, Indonesia

Public forecast

Using degrees Celsius for public forecast. Weather courtesy of forecast.io.

Closest aviation weather report (METAR) to Iray Airstrip

Closest report is Frans Kaisiepo Airport, 132.1 nm (244.7 km) E. Retrieved 2020/02/25 07:30 UTC (41 minutes ago):

WABB 250730Z 05005KT 9999 SCT018 SCT100 30/26 Q1006 NOSIG

Closest aviation forecast (TAF) to Iray Airstrip

Closest forecast is Rendani Airport, 27.6 nm (51.0 km) NNE. Retrieved UTC (0 seconds ago):